sensor_id;sensor_type;location;lat;lon;timestamp;temperature;humidity
52387;DHT22;38317;53.084;6.960;2023-02-21T00:00:02;9.40;99.90
52387;DHT22;38317;53.084;6.960;2023-02-21T00:02:46;9.40;99.90
52387;DHT22;38317;53.084;6.960;2023-02-21T00:05:31;9.50;99.90
52387;DHT22;38317;53.084;6.960;2023-02-21T00:08:15;9.40;99.90
52387;DHT22;38317;53.084;6.960;2023-02-21T00:10:59;9.40;99.90
52387;DHT22;38317;53.084;6.960;2023-02-21T00:13:43;9.40;99.90
52387;DHT22;38317;53.084;6.960;2023-02-21T00:16:27;9.40;99.90
52387;DHT22;38317;53.084;6.960;2023-02-21T00:19:11;9.40;99.90
52387;DHT22;38317;53.084;6.960;2023-02-21T00:21:56;9.40;99.90
52387;DHT22;38317;53.084;6.960;2023-02-21T00:24:40;9.40;99.90
52387;DHT22;38317;53.084;6.960;2023-02-21T00:27:24;9.40;99.90
52387;DHT22;38317;53.084;6.960;2023-02-21T00:30:09;9.40;99.90
52387;DHT22;38317;53.084;6.960;2023-02-21T00:32:54;9.40;99.90
52387;DHT22;38317;53.084;6.960;2023-02-21T00:35:38;9.40;99.90
52387;DHT22;38317;53.084;6.960;2023-02-21T00:38:22;9.40;99.90
52387;DHT22;38317;53.084;6.960;2023-02-21T00:41:06;9.40;99.90
52387;DHT22;38317;53.084;6.960;2023-02-21T00:43:50;9.40;99.90
52387;DHT22;38317;53.084;6.960;2023-02-21T00:46:35;9.40;99.90
52387;DHT22;38317;53.084;6.960;2023-02-21T00:49:19;9.40;99.90
52387;DHT22;38317;53.084;6.960;2023-02-21T00:52:04;9.40;99.90
52387;DHT22;38317;53.084;6.960;2023-02-21T00:54:48;9.40;99.90
52387;DHT22;38317;53.084;6.960;2023-02-21T00:57:32;9.40;99.90
52387;DHT22;38317;53.084;6.960;2023-02-21T01:00:20;9.40;99.90
52387;DHT22;38317;53.084;6.960;2023-02-21T01:03:05;9.40;99.90
52387;DHT22;38317;53.084;6.960;2023-02-21T01:05:50;9.40;99.90
52387;DHT22;38317;53.084;6.960;2023-02-21T01:08:35;9.40;99.90
52387;DHT22;38317;53.084;6.960;2023-02-21T01:11:20;9.40;99.90
52387;DHT22;38317;53.084;6.960;2023-02-21T01:14:05;9.50;99.90
52387;DHT22;38317;53.084;6.960;2023-02-21T01:16:50;9.40;99.90
52387;DHT22;38317;53.084;6.960;2023-02-21T01:19:34;9.50;99.90
52387;DHT22;38317;53.084;6.960;2023-02-21T01:22:19;9.50;99.90
52387;DHT22;38317;53.084;6.960;2023-02-21T01:25:04;9.50;99.90
52387;DHT22;38317;53.084;6.960;2023-02-21T01:27:48;9.40;99.90
52387;DHT22;38317;53.084;6.960;2023-02-21T01:30:32;9.40;99.90
52387;DHT22;38317;53.084;6.960;2023-02-21T01:33:16;9.50;99.90
52387;DHT22;38317;53.084;6.960;2023-02-21T01:36:04;9.40;99.90
52387;DHT22;38317;53.084;6.960;2023-02-21T01:38:49;9.40;99.90
52387;DHT22;38317;53.084;6.960;2023-02-21T01:41:33;9.40;99.90
52387;DHT22;38317;53.084;6.960;2023-02-21T01:47:23;9.40;99.90
52387;DHT22;38317;53.084;6.960;2023-02-21T01:50:26;9.40;99.90
52387;DHT22;38317;53.084;6.960;2023-02-21T01:53:17;9.40;99.90
52387;DHT22;38317;53.084;6.960;2023-02-21T01:56:02;9.40;99.90
52387;DHT22;38317;53.084;6.960;2023-02-21T01:58:49;9.40;99.90
52387;DHT22;38317;53.084;6.960;2023-02-21T02:01:56;9.40;99.90
52387;DHT22;38317;53.084;6.960;2023-02-21T02:04:42;9.40;99.90
52387;DHT22;38317;53.084;6.960;2023-02-21T02:07:27;9.40;99.90
52387;DHT22;38317;53.084;6.960;2023-02-21T02:10:12;9.30;99.90
52387;DHT22;38317;53.084;6.960;2023-02-21T02:15:47;9.30;99.90
52387;DHT22;38317;53.084;6.960;2023-02-21T02:21:18;9.30;99.90
52387;DHT22;38317;53.084;6.960;2023-02-21T02:27:36;9.30;99.90
52387;DHT22;38317;53.084;6.960;2023-02-21T02:29:54;9.30;99.90
52387;DHT22;38317;53.084;6.960;2023-02-21T02:35:04;9.30;99.90
52387;DHT22;38317;53.084;6.960;2023-02-21T02:37:57;9.30;99.90
52387;DHT22;38317;53.084;6.960;2023-02-21T02:40:57;9.30;99.90
52387;DHT22;38317;53.084;6.960;2023-02-21T02:46:03;9.20;99.90
52387;DHT22;38317;53.084;6.960;2023-02-21T02:48:36;9.20;99.90
52387;DHT22;38317;53.084;6.960;2023-02-21T02:51:06;9.20;99.90
52387;DHT22;38317;53.084;6.960;2023-02-21T02:53:33;9.20;99.90
52387;DHT22;38317;53.084;6.960;2023-02-21T02:56:08;9.20;99.90
52387;DHT22;38317;53.084;6.960;2023-02-21T02:58:46;9.20;99.90
52387;DHT22;38317;53.084;6.960;2023-02-21T03:09:44;9.20;99.90
52387;DHT22;38317;53.084;6.960;2023-02-21T03:12:15;9.20;99.90
52387;DHT22;38317;53.084;6.960;2023-02-21T03:14:55;9.20;99.90
52387;DHT22;38317;53.084;6.960;2023-02-21T03:17:26;9.20;99.90
52387;DHT22;38317;53.084;6.960;2023-02-21T03:19:55;9.20;99.90
52387;DHT22;38317;53.084;6.960;2023-02-21T03:22:24;9.20;99.90
52387;DHT22;38317;53.084;6.960;2023-02-21T03:24:52;9.30;99.90
52387;DHT22;38317;53.084;6.960;2023-02-21T03:27:20;9.20;99.90
52387;DHT22;38317;53.084;6.960;2023-02-21T03:29:46;9.20;99.90
52387;DHT22;38317;53.084;6.960;2023-02-21T03:32:17;9.20;99.90
52387;DHT22;38317;53.084;6.960;2023-02-21T03:34:45;9.20;99.90
52387;DHT22;38317;53.084;6.960;2023-02-21T03:37:44;9.20;99.90
52387;DHT22;38317;53.084;6.960;2023-02-21T03:40:23;9.20;99.90
52387;DHT22;38317;53.084;6.960;2023-02-21T03:42:51;9.20;99.90
52387;DHT22;38317;53.084;6.960;2023-02-21T03:45:17;9.20;99.90
52387;DHT22;38317;53.084;6.960;2023-02-21T03:47:43;9.20;99.90
52387;DHT22;38317;53.084;6.960;2023-02-21T03:50:09;9.20;99.90
52387;DHT22;38317;53.084;6.960;2023-02-21T03:52:35;9.20;99.90
52387;DHT22;38317;53.084;6.960;2023-02-21T03:55:01;9.20;99.90
52387;DHT22;38317;53.084;6.960;2023-02-21T03:57:27;9.20;99.90
52387;DHT22;38317;53.084;6.960;2023-02-21T03:59:53;9.20;99.90
52387;DHT22;38317;53.084;6.960;2023-02-21T04:02:19;9.20;99.90
52387;DHT22;38317;53.084;6.960;2023-02-21T04:04:45;9.20;99.90
52387;DHT22;38317;53.084;6.960;2023-02-21T04:07:14;9.20;99.90
52387;DHT22;38317;53.084;6.960;2023-02-21T04:09:40;9.20;99.90
52387;DHT22;38317;53.084;6.960;2023-02-21T04:12:06;9.20;99.90
52387;DHT22;38317;53.084;6.960;2023-02-21T04:14:32;9.20;99.90
52387;DHT22;38317;53.084;6.960;2023-02-21T04:16:57;9.20;99.90
52387;DHT22;38317;53.084;6.960;2023-02-21T04:19:23;9.20;99.90
52387;DHT22;38317;53.084;6.960;2023-02-21T04:21:49;9.20;99.90
52387;DHT22;38317;53.084;6.960;2023-02-21T04:24:15;9.20;99.90
52387;DHT22;38317;53.084;6.960;2023-02-21T04:26:41;9.20;99.90
52387;DHT22;38317;53.084;6.960;2023-02-21T04:29:07;9.20;99.90
52387;DHT22;38317;53.084;6.960;2023-02-21T04:31:33;9.20;99.90
52387;DHT22;38317;53.084;6.960;2023-02-21T04:33:59;9.20;99.90
52387;DHT22;38317;53.084;6.960;2023-02-21T04:36:25;9.20;99.90
52387;DHT22;38317;53.084;6.960;2023-02-21T04:38:51;9.20;99.90
52387;DHT22;38317;53.084;6.960;2023-02-21T04:41:17;9.20;99.90
52387;DHT22;38317;53.084;6.960;2023-02-21T04:43:44;9.10;99.90
52387;DHT22;38317;53.084;6.960;2023-02-21T04:46:12;9.20;99.90
52387;DHT22;38317;53.084;6.960;2023-02-21T04:48:49;9.20;99.90
52387;DHT22;38317;53.084;6.960;2023-02-21T04:51:17;9.20;99.90
52387;DHT22;38317;53.084;6.960;2023-02-21T04:53:46;9.20;99.90
52387;DHT22;38317;53.084;6.960;2023-02-21T04:56:12;9.20;99.90
52387;DHT22;38317;53.084;6.960;2023-02-21T04:58:38;9.20;99.90
52387;DHT22;38317;53.084;6.960;2023-02-21T05:01:04;9.20;99.90
52387;DHT22;38317;53.084;6.960;2023-02-21T05:03:30;9.20;99.90
52387;DHT22;38317;53.084;6.960;2023-02-21T05:05:55;9.20;99.90
52387;DHT22;38317;53.084;6.960;2023-02-21T05:08:21;9.20;99.90
52387;DHT22;38317;53.084;6.960;2023-02-21T05:10:48;9.20;99.90
52387;DHT22;38317;53.084;6.960;2023-02-21T05:13:14;9.20;99.90
52387;DHT22;38317;53.084;6.960;2023-02-21T05:15:40;9.20;99.90
52387;DHT22;38317;53.084;6.960;2023-02-21T05:18:06;9.20;99.90
52387;DHT22;38317;53.084;6.960;2023-02-21T05:20:32;9.10;99.90
52387;DHT22;38317;53.084;6.960;2023-02-21T05:22:58;9.10;99.90
52387;DHT22;38317;53.084;6.960;2023-02-21T05:25:23;9.10;99.90
52387;DHT22;38317;53.084;6.960;2023-02-21T05:27:53;9.10;99.90
52387;DHT22;38317;53.084;6.960;2023-02-21T05:30:21;9.20;99.90
52387;DHT22;38317;53.084;6.960;2023-02-21T05:32:47;9.20;99.90
52387;DHT22;38317;53.084;6.960;2023-02-21T05:35:15;9.20;99.90
52387;DHT22;38317;53.084;6.960;2023-02-21T05:37:41;9.10;99.90
52387;DHT22;38317;53.084;6.960;2023-02-21T05:40:09;9.10;99.90
52387;DHT22;38317;53.084;6.960;2023-02-21T05:42:35;9.10;99.90
52387;DHT22;38317;53.084;6.960;2023-02-21T05:45:00;9.10;99.90
52387;DHT22;38317;53.084;6.960;2023-02-21T05:47:26;9.10;99.90
52387;DHT22;38317;53.084;6.960;2023-02-21T05:49:52;9.20;99.90
52387;DHT22;38317;53.084;6.960;2023-02-21T05:52:18;9.20;99.90
52387;DHT22;38317;53.084;6.960;2023-02-21T05:54:44;9.10;99.90
52387;DHT22;38317;53.084;6.960;2023-02-21T05:57:09;9.10;99.90
52387;DHT22;38317;53.084;6.960;2023-02-21T05:59:36;9.20;99.90
52387;DHT22;38317;53.084;6.960;2023-02-21T06:02:02;9.10;99.90
52387;DHT22;38317;53.084;6.960;2023-02-21T06:04:28;9.20;99.90
52387;DHT22;38317;53.084;6.960;2023-02-21T06:06:54;9.20;99.90
52387;DHT22;38317;53.084;6.960;2023-02-21T06:09:20;9.20;99.90
52387;DHT22;38317;53.084;6.960;2023-02-21T06:11:45;9.10;99.90
52387;DHT22;38317;53.084;6.960;2023-02-21T06:14:17;9.20;99.90
52387;DHT22;38317;53.084;6.960;2023-02-21T06:16:43;9.20;99.90
52387;DHT22;38317;53.084;6.960;2023-02-21T06:19:09;9.10;99.90
52387;DHT22;38317;53.084;6.960;2023-02-21T06:21:38;9.10;99.90
52387;DHT22;38317;53.084;6.960;2023-02-21T06:24:05;9.10;99.90
52387;DHT22;38317;53.084;6.960;2023-02-21T06:26:31;9.20;99.90
52387;DHT22;38317;53.084;6.960;2023-02-21T06:28:57;9.10;99.90
52387;DHT22;38317;53.084;6.960;2023-02-21T06:31:23;9.20;99.90
52387;DHT22;38317;53.084;6.960;2023-02-21T06:33:49;9.10;99.90
52387;DHT22;38317;53.084;6.960;2023-02-21T06:36:19;9.10;99.90
52387;DHT22;38317;53.084;6.960;2023-02-21T06:38:47;9.10;99.90
52387;DHT22;38317;53.084;6.960;2023-02-21T06:41:18;9.10;99.90
52387;DHT22;38317;53.084;6.960;2023-02-21T06:43:44;9.20;99.90
52387;DHT22;38317;53.084;6.960;2023-02-21T06:46:17;9.10;99.90
52387;DHT22;38317;53.084;6.960;2023-02-21T06:48:43;9.10;99.90
52387;DHT22;38317;53.084;6.960;2023-02-21T06:51:09;9.10;99.90
52387;DHT22;38317;53.084;6.960;2023-02-21T06:53:36;9.10;99.90
52387;DHT22;38317;53.084;6.960;2023-02-21T06:56:03;9.10;99.90
52387;DHT22;38317;53.084;6.960;2023-02-21T06:58:29;9.10;99.90
52387;DHT22;38317;53.084;6.960;2023-02-21T07:00:55;9.10;99.90
52387;DHT22;38317;53.084;6.960;2023-02-21T07:03:21;9.10;99.90
52387;DHT22;38317;53.084;6.960;2023-02-21T07:05:46;9.10;99.90
52387;DHT22;38317;53.084;6.960;2023-02-21T07:08:12;9.10;99.90
52387;DHT22;38317;53.084;6.960;2023-02-21T07:10:38;9.10;99.90
52387;DHT22;38317;53.084;6.960;2023-02-21T07:13:04;9.10;99.90
52387;DHT22;38317;53.084;6.960;2023-02-21T07:15:29;9.10;99.90
52387;DHT22;38317;53.084;6.960;2023-02-21T07:17:55;9.10;99.90
52387;DHT22;38317;53.084;6.960;2023-02-21T07:20:21;9.10;99.90
52387;DHT22;38317;53.084;6.960;2023-02-21T07:22:46;9.10;99.90
52387;DHT22;38317;53.084;6.960;2023-02-21T07:25:18;9.10;99.90
52387;DHT22;38317;53.084;6.960;2023-02-21T07:27:46;9.10;99.90
52387;DHT22;38317;53.084;6.960;2023-02-21T07:30:12;9.10;99.90
52387;DHT22;38317;53.084;6.960;2023-02-21T07:32:38;9.10;99.90
52387;DHT22;38317;53.084;6.960;2023-02-21T07:35:04;9.10;99.90
52387;DHT22;38317;53.084;6.960;2023-02-21T07:37:30;9.10;99.90
52387;DHT22;38317;53.084;6.960;2023-02-21T07:39:56;9.10;99.90
52387;DHT22;38317;53.084;6.960;2023-02-21T07:42:22;9.10;99.90
52387;DHT22;38317;53.084;6.960;2023-02-21T07:44:47;9.10;99.90
52387;DHT22;38317;53.084;6.960;2023-02-21T07:47:13;9.10;99.90
52387;DHT22;38317;53.084;6.960;2023-02-21T07:49:40;9.10;99.90
52387;DHT22;38317;53.084;6.960;2023-02-21T07:52:06;9.10;99.90
52387;DHT22;38317;53.084;6.960;2023-02-21T07:54:32;9.10;99.90
52387;DHT22;38317;53.084;6.960;2023-02-21T07:56:58;9.10;99.90
52387;DHT22;38317;53.084;6.960;2023-02-21T07:59:24;9.20;99.90
52387;DHT22;38317;53.084;6.960;2023-02-21T08:01:49;9.20;99.90
52387;DHT22;38317;53.084;6.960;2023-02-21T08:04:15;9.20;99.90
52387;DHT22;38317;53.084;6.960;2023-02-21T08:06:46;9.20;99.90
52387;DHT22;38317;53.084;6.960;2023-02-21T08:09:13;9.20;99.90
52387;DHT22;38317;53.084;6.960;2023-02-21T08:11:39;9.20;99.90
52387;DHT22;38317;53.084;6.960;2023-02-21T08:14:05;9.20;99.90
52387;DHT22;38317;53.084;6.960;2023-02-21T08:16:32;9.20;99.90
52387;DHT22;38317;53.084;6.960;2023-02-21T08:18:57;9.30;99.90
52387;DHT22;38317;53.084;6.960;2023-02-21T08:21:23;9.30;99.90
52387;DHT22;38317;53.084;6.960;2023-02-21T08:23:53;9.30;99.90
52387;DHT22;38317;53.084;6.960;2023-02-21T08:26:19;9.30;99.90
52387;DHT22;38317;53.084;6.960;2023-02-21T08:28:45;9.30;99.90
52387;DHT22;38317;53.084;6.960;2023-02-21T08:31:11;9.30;99.90
52387;DHT22;38317;53.084;6.960;2023-02-21T08:33:37;9.30;99.90
52387;DHT22;38317;53.084;6.960;2023-02-21T08:36:03;9.40;99.90
52387;DHT22;38317;53.084;6.960;2023-02-21T08:38:29;9.40;99.90
52387;DHT22;38317;53.084;6.960;2023-02-21T08:40:55;9.40;99.90
52387;DHT22;38317;53.084;6.960;2023-02-21T08:43:22;9.40;99.90
52387;DHT22;38317;53.084;6.960;2023-02-21T08:45:48;9.50;99.90
52387;DHT22;38317;53.084;6.960;2023-02-21T08:48:14;9.50;99.90
52387;DHT22;38317;53.084;6.960;2023-02-21T08:50:40;9.50;99.90
52387;DHT22;38317;53.084;6.960;2023-02-21T08:53:06;9.50;99.90
52387;DHT22;38317;53.084;6.960;2023-02-21T08:55:31;9.50;99.90
52387;DHT22;38317;53.084;6.960;2023-02-21T08:57:57;9.60;99.90
52387;DHT22;38317;53.084;6.960;2023-02-21T09:00:24;9.60;99.90
52387;DHT22;38317;53.084;6.960;2023-02-21T09:02:53;9.50;99.90
52387;DHT22;38317;53.084;6.960;2023-02-21T09:05:29;9.60;99.90
52387;DHT22;38317;53.084;6.960;2023-02-21T09:07:57;9.60;99.90
52387;DHT22;38317;53.084;6.960;2023-02-21T09:10:29;9.60;99.90
52387;DHT22;38317;53.084;6.960;2023-02-21T09:12:55;9.60;99.90
52387;DHT22;38317;53.084;6.960;2023-02-21T09:15:21;9.70;99.90
52387;DHT22;38317;53.084;6.960;2023-02-21T09:17:47;9.60;99.90
52387;DHT22;38317;53.084;6.960;2023-02-21T09:20:18;9.70;99.90
52387;DHT22;38317;53.084;6.960;2023-02-21T09:22:44;9.70;99.90
52387;DHT22;38317;53.084;6.960;2023-02-21T09:25:14;9.70;99.90
52387;DHT22;38317;53.084;6.960;2023-02-21T09:27:40;9.80;99.90
52387;DHT22;38317;53.084;6.960;2023-02-21T09:30:15;9.80;99.90
52387;DHT22;38317;53.084;6.960;2023-02-21T09:32:41;9.80;99.90
52387;DHT22;38317;53.084;6.960;2023-02-21T09:35:08;9.90;99.90
52387;DHT22;38317;53.084;6.960;2023-02-21T09:37:37;9.90;99.90
52387;DHT22;38317;53.084;6.960;2023-02-21T09:40:06;9.90;99.90
52387;DHT22;38317;53.084;6.960;2023-02-21T09:42:34;9.90;99.90
52387;DHT22;38317;53.084;6.960;2023-02-21T09:45:01;9.90;99.90
52387;DHT22;38317;53.084;6.960;2023-02-21T09:47:29;9.90;99.90
52387;DHT22;38317;53.084;6.960;2023-02-21T09:50:10;10.00;99.90
52387;DHT22;38317;53.084;6.960;2023-02-21T09:52:39;10.00;99.90
52387;DHT22;38317;53.084;6.960;2023-02-21T09:55:20;10.00;99.90
52387;DHT22;38317;53.084;6.960;2023-02-21T09:57:47;10.10;99.90
52387;DHT22;38317;53.084;6.960;2023-02-21T10:00:21;10.00;99.90
52387;DHT22;38317;53.084;6.960;2023-02-21T10:03:44;10.10;99.90
52387;DHT22;38317;53.084;6.960;2023-02-21T10:05:52;10.00;99.90
52387;DHT22;38317;53.084;6.960;2023-02-21T10:08:29;10.10;99.90
52387;DHT22;38317;53.084;6.960;2023-02-21T10:14:00;10.10;99.90
52387;DHT22;38317;53.084;6.960;2023-02-21T10:16:36;10.10;99.90
52387;DHT22;38317;53.084;6.960;2023-02-21T10:21:47;10.10;99.90
52387;DHT22;38317;53.084;6.960;2023-02-21T10:24:17;10.10;99.90
52387;DHT22;38317;53.084;6.960;2023-02-21T10:27:45;10.00;99.90
52387;DHT22;38317;53.084;6.960;2023-02-21T10:29:56;10.00;99.90
52387;DHT22;38317;53.084;6.960;2023-02-21T10:32:24;10.00;99.90
52387;DHT22;38317;53.084;6.960;2023-02-21T10:34:51;10.00;99.90
52387;DHT22;38317;53.084;6.960;2023-02-21T10:37:46;10.00;99.90
52387;DHT22;38317;53.084;6.960;2023-02-21T10:43:18;10.00;99.90
52387;DHT22;38317;53.084;6.960;2023-02-21T10:46:05;10.00;99.90
52387;DHT22;38317;53.084;6.960;2023-02-21T10:48:37;10.00;99.90
52387;DHT22;38317;53.084;6.960;2023-02-21T10:51:14;10.00;99.90
52387;DHT22;38317;53.084;6.960;2023-02-21T10:53:43;10.00;99.90
52387;DHT22;38317;53.084;6.960;2023-02-21T10:56:19;10.00;99.90
52387;DHT22;38317;53.084;6.960;2023-02-21T11:01:29;10.10;99.90
52387;DHT22;38317;53.084;6.960;2023-02-21T11:04:01;10.10;99.90
52387;DHT22;38317;53.084;6.960;2023-02-21T11:08:56;10.00;99.90
52387;DHT22;38317;53.084;6.960;2023-02-21T11:11:37;10.10;99.90
52387;DHT22;38317;53.084;6.960;2023-02-21T11:14:20;10.10;99.90
52387;DHT22;38317;53.084;6.960;2023-02-21T11:17:03;10.20;99.90
52387;DHT22;38317;53.084;6.960;2023-02-21T11:19:41;10.20;99.90
52387;DHT22;38317;53.084;6.960;2023-02-21T11:22:07;10.20;99.90
52387;DHT22;38317;53.084;6.960;2023-02-21T11:27:25;10.20;99.90
52387;DHT22;38317;53.084;6.960;2023-02-21T11:29:53;10.20;99.90
52387;DHT22;38317;53.084;6.960;2023-02-21T11:32:27;10.20;99.90
52387;DHT22;38317;53.084;6.960;2023-02-21T11:35:05;10.30;99.90
52387;DHT22;38317;53.084;6.960;2023-02-21T11:37:31;10.20;99.90
52387;DHT22;38317;53.084;6.960;2023-02-21T11:39:57;10.30;99.90
52387;DHT22;38317;53.084;6.960;2023-02-21T11:42:31;10.20;99.90
52387;DHT22;38317;53.084;6.960;2023-02-21T11:45:27;10.30;99.90
52387;DHT22;38317;53.084;6.960;2023-02-21T11:48:03;10.30;99.90
52387;DHT22;38317;53.084;6.960;2023-02-21T11:50:35;10.30;99.90
52387;DHT22;38317;53.084;6.960;2023-02-21T11:56:17;10.30;99.90
52387;DHT22;38317;53.084;6.960;2023-02-21T12:01:51;10.30;99.90
52387;DHT22;38317;53.084;6.960;2023-02-21T12:04:40;10.30;99.90
52387;DHT22;38317;53.084;6.960;2023-02-21T12:07:41;10.30;99.90
52387;DHT22;38317;53.084;6.960;2023-02-21T12:26:51;10.50;99.90
52387;DHT22;38317;53.084;6.960;2023-02-21T12:46:25;10.50;99.90
52387;DHT22;38317;53.084;6.960;2023-02-21T12:51:51;10.50;99.90
52387;DHT22;38317;53.084;6.960;2023-02-21T12:57:13;10.60;99.90
52387;DHT22;38317;53.084;6.960;2023-02-21T13:05:43;10.50;99.90
52387;DHT22;38317;53.084;6.960;2023-02-21T13:08:19;10.60;99.90
52387;DHT22;38317;53.084;6.960;2023-02-21T13:13:30;10.50;99.90
52387;DHT22;38317;53.084;6.960;2023-02-21T13:16:05;10.50;99.90
52387;DHT22;38317;53.084;6.960;2023-02-21T13:18:36;10.50;99.90
52387;DHT22;38317;53.084;6.960;2023-02-21T13:23:55;10.50;99.90
52387;DHT22;38317;53.084;6.960;2023-02-21T13:29:25;10.50;99.90
52387;DHT22;38317;53.084;6.960;2023-02-21T13:32:03;10.40;99.90
52387;DHT22;38317;53.084;6.960;2023-02-21T13:34:45;10.40;99.90
52387;DHT22;38317;53.084;6.960;2023-02-21T13:37:23;10.40;99.90
52387;DHT22;38317;53.084;6.960;2023-02-21T13:39:59;10.40;99.90
52387;DHT22;38317;53.084;6.960;2023-02-21T13:42:34;10.40;99.90
52387;DHT22;38317;53.084;6.960;2023-02-21T13:45:23;10.40;99.90
52387;DHT22;38317;53.084;6.960;2023-02-21T13:55:37;10.40;99.90
52387;DHT22;38317;53.084;6.960;2023-02-21T14:08:42;10.50;99.90
52387;DHT22;38317;53.084;6.960;2023-02-21T14:16:19;10.50;99.90
52387;DHT22;38317;53.084;6.960;2023-02-21T14:21:24;10.50;99.90
52387;DHT22;38317;53.084;6.960;2023-02-21T14:24:14;10.50;99.90
52387;DHT22;38317;53.084;6.960;2023-02-21T14:29:14;10.50;99.90
52387;DHT22;38317;53.084;6.960;2023-02-21T14:34:34;10.50;99.90
52387;DHT22;38317;53.084;6.960;2023-02-21T14:48:39;10.40;99.90
52387;DHT22;38317;53.084;6.960;2023-02-21T14:54:05;10.40;99.90
52387;DHT22;38317;53.084;6.960;2023-02-21T14:56:53;10.30;99.90
52387;DHT22;38317;53.084;6.960;2023-02-21T15:10:20;10.20;99.90
52387;DHT22;38317;53.084;6.960;2023-02-21T15:12:54;10.20;99.90
52387;DHT22;38317;53.084;6.960;2023-02-21T15:15:37;10.30;99.90
52387;DHT22;38317;53.084;6.960;2023-02-21T15:18:25;10.20;99.90
52387;DHT22;38317;53.084;6.960;2023-02-21T15:23:45;10.20;99.90
52387;DHT22;38317;53.084;6.960;2023-02-21T15:26:27;10.10;99.90
52387;DHT22;38317;53.084;6.960;2023-02-21T15:31:35;10.10;99.90
52387;DHT22;38317;53.084;6.960;2023-02-21T15:34:01;10.10;99.90
52387;DHT22;38317;53.084;6.960;2023-02-21T15:36:28;10.10;99.90
52387;DHT22;38317;53.084;6.960;2023-02-21T15:39:09;10.10;99.90
52387;DHT22;38317;53.084;6.960;2023-02-21T15:41:40;10.00;99.90
52387;DHT22;38317;53.084;6.960;2023-02-21T15:44:19;10.00;99.90
52387;DHT22;38317;53.084;6.960;2023-02-21T15:46:54;10.00;99.90
52387;DHT22;38317;53.084;6.960;2023-02-21T15:49:59;10.00;99.90
52387;DHT22;38317;53.084;6.960;2023-02-21T15:55:25;10.00;99.90
52387;DHT22;38317;53.084;6.960;2023-02-21T16:03:26;9.90;99.90
52387;DHT22;38317;53.084;6.960;2023-02-21T16:08:39;9.90;99.90
52387;DHT22;38317;53.084;6.960;2023-02-21T16:11:14;9.90;99.90
52387;DHT22;38317;53.084;6.960;2023-02-21T16:13:40;9.90;99.90
52387;DHT22;38317;53.084;6.960;2023-02-21T16:16:07;9.80;99.90
52387;DHT22;38317;53.084;6.960;2023-02-21T16:18:33;9.80;99.90
52387;DHT22;38317;53.084;6.960;2023-02-21T16:21:02;9.80;99.90
52387;DHT22;38317;53.084;6.960;2023-02-21T16:23:35;9.80;99.90
52387;DHT22;38317;53.084;6.960;2023-02-21T16:26:18;9.80;99.90
52387;DHT22;38317;53.084;6.960;2023-02-21T16:28:45;9.80;99.90
52387;DHT22;38317;53.084;6.960;2023-02-21T16:31:31;9.70;99.90
52387;DHT22;38317;53.084;6.960;2023-02-21T16:33:58;9.70;99.90
52387;DHT22;38317;53.084;6.960;2023-02-21T16:36:29;9.70;99.90
52387;DHT22;38317;53.084;6.960;2023-02-21T16:38:56;9.70;99.90
52387;DHT22;38317;53.084;6.960;2023-02-21T16:41:22;9.70;99.90
52387;DHT22;38317;53.084;6.960;2023-02-21T16:43:48;9.70;99.90
52387;DHT22;38317;53.084;6.960;2023-02-21T16:46:15;9.60;99.90
52387;DHT22;38317;53.084;6.960;2023-02-21T16:48:47;9.60;99.90
52387;DHT22;38317;53.084;6.960;2023-02-21T16:51:13;9.60;99.90
52387;DHT22;38317;53.084;6.960;2023-02-21T16:53:39;9.60;99.90
52387;DHT22;38317;53.084;6.960;2023-02-21T16:56:05;9.60;99.90
52387;DHT22;38317;53.084;6.960;2023-02-21T16:58:45;9.60;99.90
52387;DHT22;38317;53.084;6.960;2023-02-21T17:03:40;9.60;99.90
52387;DHT22;38317;53.084;6.960;2023-02-21T17:06:07;9.60;99.90
52387;DHT22;38317;53.084;6.960;2023-02-21T17:08:39;9.50;99.90
52387;DHT22;38317;53.084;6.960;2023-02-21T17:11:04;9.50;99.90
52387;DHT22;38317;53.084;6.960;2023-02-21T17:13:30;9.50;99.90
52387;DHT22;38317;53.084;6.960;2023-02-21T17:15:56;9.50;99.90
52387;DHT22;38317;53.084;6.960;2023-02-21T17:18:22;9.50;99.90
52387;DHT22;38317;53.084;6.960;2023-02-21T17:20:48;9.40;99.90
52387;DHT22;38317;53.084;6.960;2023-02-21T17:23:14;9.40;99.90
52387;DHT22;38317;53.084;6.960;2023-02-21T17:25:40;9.40;99.90
52387;DHT22;38317;53.084;6.960;2023-02-21T17:28:06;9.40;99.90
52387;DHT22;38317;53.084;6.960;2023-02-21T17:30:32;9.40;99.90
52387;DHT22;38317;53.084;6.960;2023-02-21T17:32:57;9.40;99.90
52387;DHT22;38317;53.084;6.960;2023-02-21T17:35:23;9.40;99.90
52387;DHT22;38317;53.084;6.960;2023-02-21T17:37:49;9.40;99.90
52387;DHT22;38317;53.084;6.960;2023-02-21T17:40:18;9.40;99.90
52387;DHT22;38317;53.084;6.960;2023-02-21T17:42:44;9.40;99.90
52387;DHT22;38317;53.084;6.960;2023-02-21T17:45:10;9.40;99.90
52387;DHT22;38317;53.084;6.960;2023-02-21T17:47:36;9.30;99.90
52387;DHT22;38317;53.084;6.960;2023-02-21T17:50:02;9.30;99.90
52387;DHT22;38317;53.084;6.960;2023-02-21T17:52:29;9.30;99.90
52387;DHT22;38317;53.084;6.960;2023-02-21T17:54:55;9.20;99.90
52387;DHT22;38317;53.084;6.960;2023-02-21T17:57:21;9.30;99.90
52387;DHT22;38317;53.084;6.960;2023-02-21T17:59:47;9.30;99.90
52387;DHT22;38317;53.084;6.960;2023-02-21T18:02:13;9.30;99.90
52387;DHT22;38317;53.084;6.960;2023-02-21T18:04:41;9.20;99.90
52387;DHT22;38317;53.084;6.960;2023-02-21T18:07:07;9.30;99.90
52387;DHT22;38317;53.084;6.960;2023-02-21T18:09:33;9.30;99.90
52387;DHT22;38317;53.084;6.960;2023-02-21T18:11:59;9.20;99.90
52387;DHT22;38317;53.084;6.960;2023-02-21T18:14:27;9.30;99.90
52387;DHT22;38317;53.084;6.960;2023-02-21T18:16:55;9.30;99.90
52387;DHT22;38317;53.084;6.960;2023-02-21T18:19:25;9.20;99.90
52387;DHT22;38317;53.084;6.960;2023-02-21T18:21:50;9.20;99.90
52387;DHT22;38317;53.084;6.960;2023-02-21T18:24:17;9.30;99.90
52387;DHT22;38317;53.084;6.960;2023-02-21T18:26:44;9.20;99.90
52387;DHT22;38317;53.084;6.960;2023-02-21T18:29:11;9.20;99.90
52387;DHT22;38317;53.084;6.960;2023-02-21T18:31:37;9.20;99.90
52387;DHT22;38317;53.084;6.960;2023-02-21T18:34:03;9.20;99.90
52387;DHT22;38317;53.084;6.960;2023-02-21T18:36:29;9.20;99.90
52387;DHT22;38317;53.084;6.960;2023-02-21T18:38:55;9.20;99.90
52387;DHT22;38317;53.084;6.960;2023-02-21T18:41:22;9.20;99.90
52387;DHT22;38317;53.084;6.960;2023-02-21T18:43:48;9.20;99.90
52387;DHT22;38317;53.084;6.960;2023-02-21T18:46:16;9.20;99.90
52387;DHT22;38317;53.084;6.960;2023-02-21T18:48:48;9.20;99.90
52387;DHT22;38317;53.084;6.960;2023-02-21T18:51:15;9.20;99.90
52387;DHT22;38317;53.084;6.960;2023-02-21T18:53:43;9.20;99.90
52387;DHT22;38317;53.084;6.960;2023-02-21T18:56:11;9.20;99.90
52387;DHT22;38317;53.084;6.960;2023-02-21T18:58:38;9.20;99.90
52387;DHT22;38317;53.084;6.960;2023-02-21T19:01:05;9.20;99.90
52387;DHT22;38317;53.084;6.960;2023-02-21T19:03:31;9.20;99.90
52387;DHT22;38317;53.084;6.960;2023-02-21T19:05:57;9.10;99.90
52387;DHT22;38317;53.084;6.960;2023-02-21T19:08:23;9.10;99.90